createdAt,value
2023-04-18T00:00:49.624Z,8.40
2023-04-18T00:03:16.883Z,7.50
2023-04-18T00:05:48.374Z,8.40
2023-04-18T00:08:15.668Z,6.30
2023-04-18T00:10:42.816Z,5.80
2023-04-18T00:13:10.590Z,5.40
2023-04-18T00:15:37.745Z,7.30
2023-04-18T00:18:06.417Z,5.30
2023-04-18T00:20:33.550Z,4.90
2023-04-18T00:23:01.011Z,5.40
2023-04-18T00:25:28.055Z,7.10
2023-04-18T00:27:54.995Z,7.20
2023-04-18T00:30:21.838Z,7.70
2023-04-18T00:32:48.788Z,6.00
2023-04-18T00:35:16.256Z,6.60
2023-04-18T00:37:43.376Z,5.50
2023-04-18T00:40:10.972Z,4.80
2023-04-18T00:42:37.881Z,5.20
2023-04-18T00:45:06.547Z,5.00
2023-04-18T00:47:33.461Z,4.20
2023-04-18T00:50:00.859Z,6.60
2023-04-18T00:52:28.552Z,4.70
2023-04-18T00:54:55.982Z,5.10
2023-04-18T00:57:23.024Z,5.90
2023-04-18T00:59:50.170Z,3.90
2023-04-18T01:02:17.881Z,4.00
2023-04-18T01:04:45.329Z,3.10
2023-04-18T01:07:13.019Z,4.70
2023-04-18T01:09:41.881Z,4.90
2023-04-18T01:12:08.902Z,4.10
2023-04-18T01:14:35.922Z,5.10
2023-04-18T01:17:03.172Z,4.00
2023-04-18T01:19:30.604Z,4.50
2023-04-18T01:21:57.668Z,5.10
2023-04-18T01:24:27.345Z,4.50
2023-04-18T01:26:54.376Z,4.70
2023-04-18T01:29:21.723Z,3.90
2023-04-18T01:31:49.969Z,6.00
2023-04-18T01:34:18.608Z,4.70
2023-04-18T01:36:46.555Z,3.50
2023-04-18T01:39:14.254Z,5.50
2023-04-18T01:41:42.640Z,3.90
2023-04-18T01:44:09.678Z,4.50
2023-04-18T01:46:37.389Z,4.40
2023-04-18T01:49:04.490Z,4.90
2023-04-18T01:51:32.130Z,4.10
2023-04-18T01:53:59.192Z,5.50
2023-04-18T01:56:26.363Z,3.70
2023-04-18T01:58:53.257Z,4.40
2023-04-18T02:01:20.921Z,5.00
2023-04-18T02:03:48.456Z,4.90
2023-04-18T02:06:16.061Z,4.80
2023-04-18T02:08:42.927Z,4.00
2023-04-18T02:11:10.262Z,4.10
2023-04-18T02:13:37.289Z,5.20
2023-04-18T02:16:04.383Z,4.80
2023-04-18T02:18:34.970Z,5.60
2023-04-18T02:21:02.737Z,6.60
2023-04-18T02:23:30.042Z,7.50
2023-04-18T02:25:57.123Z,6.90
2023-04-18T02:28:24.166Z,6.90
2023-04-18T02:30:51.481Z,5.20
2023-04-18T02:33:18.465Z,6.20
2023-04-18T02:35:45.924Z,8.00
2023-04-18T02:38:14.190Z,6.60
2023-04-18T02:40:41.452Z,7.50
2023-04-18T02:43:09.087Z,5.60
2023-04-18T02:45:36.323Z,7.70
2023-04-18T02:48:03.604Z,7.10
2023-04-18T02:50:30.923Z,6.70
2023-04-18T02:52:58.130Z,6.00
2023-04-18T02:55:27.293Z,4.90
2023-04-18T02:57:54.603Z,6.80
2023-04-18T03:00:21.694Z,5.00
2023-04-18T03:02:48.766Z,5.50
2023-04-18T03:05:15.784Z,4.80
2023-04-18T03:07:42.831Z,4.30
2023-04-18T03:10:10.794Z,3.20
2023-04-18T03:12:37.844Z,6.00
2023-04-18T03:15:05.598Z,5.60
2023-04-18T03:17:33.046Z,5.70
2023-04-18T03:20:00.124Z,6.40
2023-04-18T03:22:27.320Z,4.80
2023-04-18T03:24:54.403Z,4.80
2023-04-18T03:27:21.445Z,5.70
2023-04-18T03:29:48.386Z,7.40
2023-04-18T03:32:15.433Z,7.00
2023-04-18T03:34:42.373Z,7.10
2023-04-18T03:37:09.649Z,7.10
2023-04-18T03:39:36.870Z,6.20
2023-04-18T03:42:04.224Z,7.00
2023-04-18T03:44:31.679Z,5.00
2023-04-18T03:46:59.030Z,6.10
2023-04-18T03:49:26.219Z,6.00
2023-04-18T03:51:53.157Z,4.10
2023-04-18T03:54:20.267Z,6.40
2023-04-18T03:56:47.802Z,5.60
2023-04-18T03:59:15.804Z,6.10
2023-04-18T04:01:43.147Z,5.80
2023-04-18T04:04:12.553Z,7.00
2023-04-18T04:06:40.013Z,6.50
2023-04-18T04:09:07.157Z,6.10
2023-04-18T04:11:34.366Z,4.80
2023-04-18T04:14:01.599Z,5.00
2023-04-18T04:16:29.128Z,5.00
2023-04-18T04:18:56.262Z,6.90
2023-04-18T04:21:23.305Z,4.80
2023-04-18T04:23:50.451Z,7.30
2023-04-18T04:26:17.600Z,5.50
2023-04-18T04:28:46.847Z,6.30
2023-04-18T04:31:14.206Z,6.00
2023-04-18T04:33:41.389Z,5.50
2023-04-18T04:36:09.799Z,7.10
2023-04-18T04:38:38.758Z,7.20
2023-04-18T04:41:08.050Z,8.00
2023-04-18T04:43:35.302Z,7.70
2023-04-18T04:46:08.129Z,8.00
2023-04-18T04:48:35.829Z,5.90
2023-04-18T04:51:03.006Z,6.00
2023-04-18T04:53:33.419Z,6.70
2023-04-18T04:56:00.864Z,6.70
2023-04-18T04:58:28.950Z,8.20
2023-04-18T05:00:56.215Z,6.30
2023-04-18T05:03:23.480Z,7.80
2023-04-18T05:05:50.931Z,7.00
2023-04-18T05:08:18.144Z,7.40
2023-04-18T05:10:46.280Z,6.00
2023-04-18T05:13:13.980Z,7.10
2023-04-18T05:15:41.230Z,6.60
2023-04-18T05:18:09.051Z,6.90
2023-04-18T05:20:36.419Z,6.70
2023-04-18T05:23:03.592Z,5.70
2023-04-18T05:25:31.974Z,6.30
2023-04-18T05:28:01.577Z,8.10
2023-04-18T05:30:33.534Z,7.20
2023-04-18T05:33:08.293Z,4.70
2023-04-18T05:35:41.700Z,7.90
2023-04-18T05:38:08.675Z,6.80
2023-04-18T05:40:36.053Z,5.90
2023-04-18T05:43:03.083Z,7.00
2023-04-18T05:45:30.144Z,6.10
2023-04-18T05:47:57.530Z,5.40
2023-04-18T05:50:24.640Z,7.80
2023-04-18T05:52:51.896Z,7.20
2023-04-18T05:55:19.041Z,8.30
2023-04-18T05:57:45.986Z,7.20
2023-04-18T06:00:14.009Z,5.60
2023-04-18T06:02:41.473Z,5.10
2023-04-18T06:05:09.589Z,6.70
2023-04-18T06:07:36.853Z,5.70
2023-04-18T06:10:06.223Z,7.20
2023-04-18T06:12:33.075Z,5.80
2023-04-18T06:15:00.285Z,6.60
2023-04-18T06:17:27.766Z,6.80
2023-04-18T06:19:54.729Z,7.00
2023-04-18T06:22:21.804Z,5.90
2023-04-18T06:24:49.113Z,7.00
2023-04-18T06:27:30.130Z,6.80
2023-04-18T06:29:58.278Z,8.30
2023-04-18T06:32:25.758Z,6.50
2023-04-18T06:34:53.592Z,5.40
2023-04-18T06:37:21.130Z,6.70
2023-04-18T06:39:48.436Z,7.20
2023-04-18T06:42:15.565Z,6.90
2023-04-18T06:44:43.419Z,5.20
2023-04-18T06:47:11.475Z,7.90
2023-04-18T06:49:38.580Z,7.00
2023-04-18T06:52:05.867Z,6.40
2023-04-18T06:54:32.915Z,6.70
2023-04-18T06:57:00.522Z,6.40
2023-04-18T06:59:27.443Z,4.50
2023-04-18T07:01:54.663Z,5.90
2023-04-18T07:04:22.179Z,7.00
2023-04-18T07:06:49.408Z,5.70
2023-04-18T07:09:16.759Z,8.30
2023-04-18T07:11:43.867Z,7.00
2023-04-18T07:14:12.549Z,7.30
2023-04-18T07:16:40.050Z,5.80
2023-04-18T07:19:07.160Z,5.80
2023-04-18T07:21:34.294Z,5.30
2023-04-18T07:24:01.559Z,5.40
2023-04-18T07:26:28.763Z,5.00
2023-04-18T07:28:55.741Z,8.10
2023-04-18T07:31:23.304Z,6.20
2023-04-18T07:33:50.642Z,6.20
2023-04-18T07:36:18.036Z,7.30
2023-04-18T07:38:45.875Z,7.30
2023-04-18T07:41:13.115Z,6.40
2023-04-18T07:43:40.880Z,7.10
2023-04-18T07:46:08.317Z,6.00
2023-04-18T07:48:35.565Z,5.40
2023-04-18T07:51:03.555Z,5.60
2023-04-18T07:53:30.903Z,4.90
2023-04-18T07:55:58.141Z,5.30
2023-04-18T07:58:25.563Z,5.10
2023-04-18T08:00:52.693Z,6.10
2023-04-18T08:03:20.265Z,5.70
2023-04-18T08:05:47.352Z,5.60
2023-04-18T08:08:14.438Z,4.20
2023-04-18T08:10:41.542Z,7.30
2023-04-18T08:13:09.154Z,7.00
2023-04-18T08:15:36.072Z,6.20
2023-04-18T08:18:03.247Z,7.20
2023-04-18T08:20:30.666Z,5.30
2023-04-18T08:23:07.357Z,5.30
2023-04-18T08:25:36.844Z,6.80
2023-04-18T08:28:04.380Z,5.90
2023-04-18T08:30:31.807Z,6.30
2023-04-18T08:33:01.066Z,7.30
2023-04-18T08:35:28.156Z,7.30
2023-04-18T08:37:55.167Z,4.90
2023-04-18T08:40:22.688Z,5.70
2023-04-18T08:42:52.461Z,6.60
2023-04-18T08:45:20.362Z,6.60
2023-04-18T08:47:47.674Z,5.80
2023-04-18T08:50:15.379Z,5.40
2023-04-18T08:52:49.157Z,5.00
2023-04-18T08:55:17.168Z,6.80
2023-04-18T08:57:45.020Z,4.90
2023-04-18T09:00:13.014Z,6.30
2023-04-18T09:02:44.198Z,6.60
2023-04-18T09:05:22.200Z,5.30
2023-04-18T09:07:51.197Z,7.10
2023-04-18T09:10:31.068Z,4.90
2023-04-18T09:12:59.434Z,4.50
2023-04-18T09:15:29.465Z,5.90
2023-04-18T09:18:00.168Z,5.70
2023-04-18T09:23:04.524Z,4.40
2023-04-18T09:25:42.703Z,6.20
2023-04-18T09:28:25.310Z,6.60
2023-04-18T09:30:53.467Z,5.50
2023-04-18T09:33:29.550Z,6.20
2023-04-18T09:35:57.725Z,5.40
2023-04-18T09:38:42.763Z,5.10
2023-04-18T09:41:12.066Z,4.90
2023-04-18T09:43:39.882Z,5.40
2023-04-18T09:46:08.545Z,4.60
2023-04-18T09:48:36.612Z,3.60
2023-04-18T09:51:10.042Z,3.90
2023-04-18T09:53:41.828Z,3.90
2023-04-18T09:56:32.135Z,4.60
2023-04-18T09:59:10.643Z,4.70
2023-04-18T10:01:40.559Z,3.80
2023-04-18T10:04:08.487Z,4.40
2023-04-18T10:06:42.305Z,3.90
2023-04-18T10:09:10.822Z,4.30
2023-04-18T10:11:38.899Z,3.80
2023-04-18T10:14:13.300Z,3.50
2023-04-18T10:16:42.416Z,3.60
2023-04-18T10:19:36.166Z,4.60
2023-04-18T10:22:03.263Z,4.00
2023-04-18T10:24:48.851Z,4.70
2023-04-18T10:27:18.419Z,3.60
2023-04-18T10:29:54.962Z,3.50
2023-04-18T10:32:25.015Z,4.50
2023-04-18T10:34:54.623Z,3.70
2023-04-18T10:37:22.282Z,3.20
2023-04-18T10:40:00.549Z,3.60
2023-04-18T10:42:52.910Z,3.30
2023-04-18T10:45:21.267Z,3.30
2023-04-18T10:47:49.236Z,3.50
2023-04-18T10:50:17.119Z,4.30
2023-04-18T10:52:45.235Z,3.80
2023-04-18T10:55:26.711Z,3.50
2023-04-18T10:57:57.405Z,3.40
2023-04-18T11:00:25.719Z,3.00
2023-04-18T11:02:56.668Z,2.50
2023-04-18T11:05:27.038Z,3.80
2023-04-18T11:07:54.617Z,3.50
2023-04-18T11:10:24.736Z,3.80
2023-04-18T11:12:53.342Z,3.20
2023-04-18T11:15:22.885Z,2.30
2023-04-18T11:18:01.799Z,2.90
2023-04-18T11:20:30.860Z,2.60
2023-04-18T11:23:00.158Z,4.10
2023-04-18T11:25:41.320Z,3.30
2023-04-18T11:28:08.308Z,3.20
2023-04-18T11:30:40.657Z,2.90
2023-04-18T11:33:12.833Z,2.80
2023-04-18T11:35:41.752Z,2.60
2023-04-18T11:38:10.687Z,3.40
2023-04-18T11:40:38.457Z,3.50
2023-04-18T11:43:07.479Z,3.50
2023-04-18T11:45:35.398Z,3.00
2023-04-18T11:48:03.249Z,2.90
2023-04-18T11:50:37.482Z,3.10
2023-04-18T11:53:04.566Z,3.50
2023-04-18T11:55:31.621Z,3.30
2023-04-18T11:58:00.380Z,3.20
2023-04-18T12:00:42.382Z,2.60
2023-04-18T12:03:19.084Z,2.10
2023-04-18T12:05:46.376Z,2.90
2023-04-18T12:08:25.658Z,2.10
2023-04-18T12:10:54.076Z,2.30
2023-04-18T12:13:34.510Z,2.40
2023-04-18T12:16:02.876Z,2.30
2023-04-18T12:18:30.521Z,3.10
2023-04-18T12:20:58.860Z,3.10
2023-04-18T12:23:40.567Z,2.40
2023-04-18T12:26:15.653Z,2.80
2023-04-18T12:28:46.695Z,3.00
2023-04-18T12:31:13.990Z,2.70
2023-04-18T12:33:41.319Z,2.40
2023-04-18T12:36:11.672Z,2.60
2023-04-18T12:38:38.754Z,2.90
2023-04-18T12:41:06.216Z,2.50
2023-04-18T12:43:33.473Z,1.90
2023-04-18T12:46:00.513Z,2.60
2023-04-18T12:48:27.932Z,2.50
2023-04-18T12:50:55.023Z,2.50
2023-04-18T12:53:22.531Z,2.80
2023-04-18T12:55:50.194Z,2.40
2023-04-18T12:58:19.007Z,2.70
2023-04-18T13:00:46.686Z,2.20
2023-04-18T13:03:14.273Z,2.30
2023-04-18T13:05:41.587Z,2.80
2023-04-18T13:08:16.751Z,2.90
2023-04-18T13:10:46.075Z,2.90
2023-04-18T13:13:13.640Z,2.80
2023-04-18T13:15:41.354Z,2.50
2023-04-18T13:18:08.392Z,2.90
2023-04-18T13:20:36.426Z,2.10
2023-04-18T13:23:03.812Z,2.60
2023-04-18T13:25:31.796Z,2.60
2023-04-18T13:28:01.037Z,2.60
2023-04-18T13:30:28.532Z,2.10
2023-04-18T13:32:56.172Z,2.60
2023-04-18T13:35:23.332Z,2.30
2023-04-18T13:37:50.760Z,1.60
2023-04-18T13:40:18.376Z,2.90
2023-04-18T13:42:45.394Z,2.40
2023-04-18T13:45:12.398Z,2.40
2023-04-18T13:47:40.176Z,2.40
2023-04-18T13:50:08.648Z,2.50
2023-04-18T13:52:36.924Z,2.30
2023-04-18T13:55:04.328Z,2.00
2023-04-18T13:57:33.783Z,2.10
2023-04-18T14:00:00.638Z,2.30
2023-04-18T14:02:27.719Z,2.30
2023-04-18T14:04:55.771Z,2.70
2023-04-18T14:07:22.962Z,2.40
2023-04-18T14:09:50.833Z,2.90
2023-04-18T14:18:09.560Z,2.30
2023-04-18T14:20:36.965Z,1.90
2023-04-18T14:23:04.049Z,2.30
2023-04-18T14:25:31.499Z,2.50
2023-04-18T14:28:10.987Z,2.10
2023-04-18T14:30:40.064Z,2.20
2023-04-18T14:33:09.893Z,2.10
2023-04-18T14:35:37.848Z,2.40
2023-04-18T14:38:04.855Z,2.50
2023-04-18T14:40:33.041Z,2.50
2023-04-18T14:43:00.524Z,2.40
2023-04-18T14:45:28.168Z,2.00
2023-04-18T14:47:56.301Z,2.50
2023-04-18T14:50:23.702Z,2.00
2023-04-18T14:52:51.591Z,2.60
2023-04-18T14:55:22.352Z,2.70
2023-04-18T15:00:16.979Z,2.80
2023-04-18T15:02:44.547Z,2.50
2023-04-18T15:05:13.082Z,2.40
2023-04-18T15:07:42.356Z,2.70
2023-04-18T15:10:12.915Z,2.50
2023-04-18T15:12:40.178Z,3.10
2023-04-18T15:15:07.947Z,3.80
2023-04-18T15:17:35.347Z,3.10
2023-04-18T15:20:02.599Z,3.50
2023-04-18T15:22:29.698Z,3.70
2023-04-18T15:24:56.705Z,2.00
2023-04-18T15:27:34.634Z,3.40
2023-04-18T15:30:13.780Z,3.50
2023-04-18T15:32:42.545Z,3.10
2023-04-18T15:35:11.134Z,3.70
2023-04-18T15:37:38.389Z,3.90
2023-04-18T15:40:09.878Z,3.40
2023-04-18T15:42:37.538Z,4.10
2023-04-18T15:45:05.701Z,3.50
2023-04-18T15:47:34.784Z,3.50
2023-04-18T15:50:03.827Z,4.40
2023-04-18T15:52:30.903Z,3.30
2023-04-18T15:54:58.226Z,5.00
2023-04-18T15:57:25.548Z,4.80
2023-04-18T15:59:52.582Z,4.80
2023-04-18T16:02:20.691Z,3.90
2023-04-18T16:04:50.357Z,3.20
2023-04-18T16:07:35.325Z,4.00
2023-04-18T16:10:11.573Z,4.30
2023-04-18T16:12:51.681Z,5.00
2023-04-18T16:15:18.893Z,2.70
2023-04-18T16:17:46.385Z,3.80
2023-04-18T16:20:13.996Z,5.00
2023-04-18T16:22:41.591Z,3.90
2023-04-18T16:25:09.296Z,3.70
2023-04-18T16:27:36.277Z,4.80
2023-04-18T16:30:04.147Z,4.20
2023-04-18T16:32:31.367Z,4.00
2023-04-18T16:34:58.712Z,3.90
2023-04-18T16:37:25.710Z,3.90
2023-04-18T16:39:52.740Z,4.60
2023-04-18T16:42:19.599Z,4.20
2023-04-18T16:44:47.549Z,6.00
2023-04-18T16:47:14.899Z,4.90
2023-04-18T16:49:43.991Z,8.90
2023-04-18T16:52:11.122Z,4.70
2023-04-18T16:54:38.233Z,5.80
2023-04-18T16:57:05.383Z,5.70
2023-04-18T16:59:32.270Z,4.10
2023-04-18T17:01:59.845Z,7.80
2023-04-18T17:04:30.076Z,4.60
2023-04-18T17:06:57.633Z,4.40
2023-04-18T17:09:25.115Z,5.10
2023-04-18T17:11:52.067Z,4.80
2023-04-18T17:14:19.507Z,5.30
2023-04-18T17:16:47.004Z,14.70
2023-04-18T17:19:14.493Z,20.20
2023-04-18T17:21:42.331Z,22.70
2023-04-18T17:24:09.888Z,14.20
2023-04-18T17:26:39.195Z,33.80
2023-04-18T17:29:06.655Z,21.00
2023-04-18T17:31:34.631Z,22.50
2023-04-18T17:34:02.278Z,31.00
2023-04-18T17:36:29.748Z,20.00
2023-04-18T17:38:58.560Z,54.70
2023-04-18T17:41:25.967Z,84.30
2023-04-18T17:43:53.223Z,52.30
2023-04-18T17:46:20.187Z,142.30
2023-04-18T17:48:47.439Z,42.40
2023-04-18T17:51:16.865Z,32.10
2023-04-18T17:53:43.886Z,16.60
2023-04-18T17:56:11.304Z,32.20
2023-04-18T17:58:38.351Z,11.40
2023-04-18T18:01:17.744Z,9.30
2023-04-18T18:03:45.393Z,13.20
2023-04-18T18:06:14.320Z,13.60
2023-04-18T18:08:42.894Z,7.70
2023-04-18T18:11:11.205Z,15.80
2023-04-18T18:13:42.026Z,6.00
2023-04-18T18:16:09.489Z,8.40
2023-04-18T18:18:37.657Z,7.30
2023-04-18T18:21:05.206Z,10.40
2023-04-18T18:23:32.242Z,11.80
2023-04-18T18:26:00.147Z,21.20
2023-04-18T18:28:27.193Z,15.80
2023-04-18T18:30:54.191Z,9.90
2023-04-18T18:33:21.266Z,9.80
2023-04-18T18:35:48.509Z,8.00
2023-04-18T18:38:15.349Z,11.60
2023-04-18T18:40:42.547Z,11.90
2023-04-18T18:43:09.605Z,16.90
2023-04-18T18:45:36.804Z,15.50
2023-04-18T18:48:04.362Z,19.10
2023-04-18T18:50:31.523Z,20.80
2023-04-18T18:52:58.866Z,15.30
2023-04-18T18:55:27.035Z,16.60
2023-04-18T18:57:54.325Z,7.60
2023-04-18T19:00:21.865Z,12.50
2023-04-18T19:02:49.556Z,11.10
2023-04-18T19:05:17.837Z,16.30
2023-04-18T19:07:45.245Z,12.90
2023-04-18T19:10:12.631Z,19.00
2023-04-18T19:12:39.747Z,12.50
2023-04-18T19:15:07.788Z,8.60
2023-04-18T19:17:34.747Z,6.50
2023-04-18T19:20:02.016Z,7.80
2023-04-18T19:22:29.931Z,7.90
2023-04-18T19:24:57.467Z,8.50
2023-04-18T19:27:24.353Z,11.40
2023-04-18T19:29:51.705Z,7.50
2023-04-18T19:32:18.650Z,7.70
2023-04-18T19:34:45.910Z,6.60
2023-04-18T19:37:13.107Z,8.20
2023-04-18T19:39:40.085Z,7.00
2023-04-18T19:42:07.758Z,8.10
2023-04-18T19:44:35.194Z,15.00
2023-04-18T19:47:02.350Z,16.60
2023-04-18T19:49:29.508Z,16.50
2023-04-18T19:51:56.552Z,31.70
2023-04-18T19:54:23.518Z,28.30
2023-04-18T19:56:51.187Z,15.10
2023-04-18T19:59:18.150Z,14.10
2023-04-18T20:01:45.365Z,15.90
2023-04-18T20:04:12.702Z,12.00
2023-04-18T20:06:39.752Z,16.50
2023-04-18T20:09:07.182Z,13.20
2023-04-18T20:11:34.566Z,12.90
2023-04-18T20:14:01.608Z,16.00
2023-04-18T20:16:29.022Z,11.30
2023-04-18T20:18:56.898Z,13.90
2023-04-18T20:21:23.750Z,14.10
2023-04-18T20:23:51.352Z,17.80
2023-04-18T20:26:18.236Z,16.80
2023-04-18T20:28:45.602Z,17.50
2023-04-18T20:31:13.090Z,21.20
2023-04-18T20:33:40.043Z,20.50
2023-04-18T20:36:07.762Z,18.80
2023-04-18T20:38:34.738Z,19.20
2023-04-18T20:41:02.330Z,14.90
2023-04-18T20:43:29.381Z,13.70
2023-04-18T20:45:59.214Z,12.30
2023-04-18T20:48:26.705Z,12.70
2023-04-18T20:50:53.910Z,14.70
2023-04-18T20:53:22.872Z,12.60
2023-04-18T20:55:50.264Z,12.40
2023-04-18T20:58:17.539Z,13.30
2023-04-18T21:00:48.635Z,10.10
2023-04-18T21:03:16.963Z,14.00
2023-04-18T21:05:45.270Z,13.80
2023-04-18T21:08:13.025Z,16.10
2023-04-18T21:10:40.144Z,16.70
2023-04-18T21:13:07.389Z,15.00
2023-04-18T21:15:36.071Z,13.70
2023-04-18T21:18:03.125Z,16.70
2023-04-18T21:20:30.235Z,12.50
2023-04-18T21:22:57.747Z,14.30
2023-04-18T21:25:24.730Z,17.90
2023-04-18T21:27:52.189Z,15.60
2023-04-18T21:30:19.154Z,19.90
2023-04-18T21:32:47.480Z,20.70
2023-04-18T21:35:15.024Z,19.90
2023-04-18T21:37:43.191Z,33.10
2023-04-18T21:40:10.866Z,30.50
2023-04-18T21:42:38.392Z,26.40
2023-04-18T21:45:06.736Z,20.90
2023-04-18T21:47:34.162Z,18.90
2023-04-18T21:50:01.225Z,20.80
2023-04-18T21:52:28.227Z,20.80
2023-04-18T21:54:55.585Z,27.50
2023-04-18T21:57:22.627Z,32.10
2023-04-18T21:59:49.585Z,21.60
2023-04-18T22:02:16.729Z,20.00
2023-04-18T22:04:44.523Z,18.10
2023-04-18T22:07:13.143Z,16.90
2023-04-18T22:09:40.064Z,16.10
2023-04-18T22:12:07.270Z,19.20
2023-04-18T22:14:34.789Z,18.80
2023-04-18T22:17:03.676Z,19.00
2023-04-18T22:19:31.755Z,19.40
2023-04-18T22:21:59.031Z,20.60
2023-04-18T22:24:26.398Z,19.00
2023-04-18T22:26:53.828Z,18.00
2023-04-18T22:29:20.910Z,18.50
2023-04-18T22:31:47.961Z,17.20
2023-04-18T22:34:15.079Z,18.30
2023-04-18T22:36:44.504Z,16.70
2023-04-18T22:39:12.573Z,17.90
2023-04-18T22:41:39.441Z,18.70
2023-04-18T22:44:06.685Z,18.30
2023-04-18T22:46:33.622Z,19.90
2023-04-18T22:49:00.866Z,19.60
2023-04-18T22:51:28.998Z,18.90
2023-04-18T22:53:56.700Z,19.00
2023-04-18T22:56:23.689Z,19.90
2023-04-18T22:58:51.270Z,19.60
2023-04-18T23:01:18.851Z,18.10
2023-04-18T23:03:46.405Z,18.40
2023-04-18T23:06:13.561Z,18.40
2023-04-18T23:08:40.466Z,18.40
2023-04-18T23:11:13.851Z,18.70
2023-04-18T23:13:40.816Z,21.20
2023-04-18T23:16:08.388Z,18.70
2023-04-18T23:18:35.472Z,19.10
2023-04-18T23:21:02.297Z,19.40
2023-04-18T23:23:29.226Z,19.60
2023-04-18T23:25:55.988Z,17.90
2023-04-18T23:28:22.952Z,18.40
2023-04-18T23:30:50.773Z,19.70
2023-04-18T23:33:17.629Z,17.90
2023-04-18T23:35:44.454Z,17.10
2023-04-18T23:38:11.335Z,18.00
2023-04-18T23:40:38.333Z,16.70
2023-04-18T23:43:05.217Z,16.90
2023-04-18T23:45:32.230Z,16.30
2023-04-18T23:47:59.145Z,17.30
2023-04-18T23:50:26.257Z,16.90
2023-04-18T23:52:53.208Z,16.20
2023-04-18T23:55:20.117Z,17.50
2023-04-18T23:57:47.055Z,17.10
